Time,TemperatureF,DewpointF,PressureIn,WindDirection,WindDirectionDegrees,WindSpeedMPH,WindSpeedGustMPH,Humidity,HourlyPrecipIn,Conditions,Clouds,dailyrainin,SoftwareType,DateUTC
2013-01-20 00:02:00,15.0,9.0,30.14,East,91,4.0,6.0,78,0.00,,,0.00,,2013-01-20 07:02:00,
2013-01-20 00:12:00,15.0,9.0,30.14,East,91,4.0,6.0,78,0.00,,,0.00,,2013-01-20 07:12:00,
2013-01-20 00:22:00,15.0,10.0,30.14,ENE,69,3.0,7.0,79,0.00,,,0.00,,2013-01-20 07:22:00,
2013-01-20 00:32:00,15.0,9.0,30.15,ENE,61,3.0,7.0,78,0.00,,,0.00,,2013-01-20 07:32:00,
2013-01-20 00:42:00,15.0,9.0,30.15,ENE,61,3.0,7.0,78,0.00,,,0.00,,2013-01-20 07:42:00,
2013-01-20 00:52:00,15.0,9.0,30.15,NNE,17,5.0,8.0,78,0.00,,,0.00,,2013-01-20 07:52:00,
2013-01-20 01:02:00,16.0,11.0,30.16,NNE,21,6.0,9.0,79,0.00,,,0.00,,2013-01-20 08:02:00,
2013-01-20 01:12:00,16.0,11.0,30.16,NNE,21,6.0,9.0,79,0.00,,,0.00,,2013-01-20 08:12:00,
2013-01-20 01:22:00,16.0,11.0,30.16,NNE,21,6.0,9.0,79,0.00,,,0.00,,2013-01-20 08:22:00,
2013-01-20 01:32:00,16.0,11.0,30.16,NNE,21,6.0,9.0,79,0.00,,,0.00,,2013-01-20 08:32:00,
2013-01-20 01:42:00,16.0,11.0,30.16,NNE,21,6.0,9.0,79,0.00,,,0.00,,2013-01-20 08:42:00,
2013-01-20 03:52:00,14.0,11.0,30.29,NNE,28,0.0,2.0,88,0.00,,,0.00,,2013-01-20 10:52:00,
2013-01-20 04:02:00,14.0,11.0,30.30,NNE,28,1.0,3.0,88,0.00,,,0.00,,2013-01-20 11:02:00,
2013-01-20 04:12:00,14.0,11.0,30.30,NNE,28,1.0,3.0,88,0.00,,,0.00,,2013-01-20 11:12:00,
2013-01-20 04:22:00,14.0,11.0,30.31,NNE,28,2.0,4.0,88,0.00,,,0.00,,2013-01-20 11:22:00,
2013-01-20 04:32:00,15.0,12.0,30.32,North,349,7.0,12.0,88,0.00,,,0.00,,2013-01-20 11:32:00,
2013-01-20 04:42:00,15.0,12.0,30.32,North,349,7.0,12.0,88,0.00,,,0.00,,2013-01-20 11:42:00,
2013-01-20 04:53:00,15.0,12.0,30.32,North,349,7.0,12.0,88,0.00,,,0.00,,2013-01-20 11:53:00,
2013-01-20 05:03:00,15.0,12.0,30.32,North,349,7.0,12.0,88,0.00,,,0.00,,2013-01-20 12:03:00,
2013-01-20 05:12:00,15.0,12.0,30.32,North,349,7.0,12.0,88,0.00,,,0.00,,2013-01-20 12:12:00,
2013-01-20 07:23:00,10.0,5.0,30.43,NNW,343,8.0,15.0,80,0.00,,,0.00,,2013-01-20 14:23:00,
2013-01-20 07:33:00,10.0,5.0,30.45,NNW,346,10.0,15.0,78,0.00,,,0.00,,2013-01-20 14:33:00,
2013-01-20 07:43:00,10.0,5.0,30.45,NNW,346,10.0,15.0,78,0.00,,,0.00,,2013-01-20 14:43:00,
2013-01-20 07:53:00,9.0,3.0,30.46,NNW,337,9.0,16.0,75,0.00,,,0.00,,2013-01-20 14:53:00,
2013-01-20 08:03:00,9.0,3.0,30.46,NNW,337,9.0,16.0,75,0.00,,,0.00,,2013-01-20 15:03:00,
2013-01-20 08:12:00,9.0,3.0,30.46,NNW,337,9.0,16.0,75,0.00,,,0.00,,2013-01-20 15:12:00,
2013-01-20 08:23:00,9.0,3.0,30.46,NNW,337,9.0,16.0,75,0.00,,,0.00,,2013-01-20 15:23:00,
2013-01-20 08:33:00,9.0,3.0,30.46,NNW,337,9.0,16.0,75,0.00,,,0.00,,2013-01-20 15:33:00,
2013-01-20 11:03:00,3.0,-4.0,30.55,NNW,329,14.0,20.0,73,0.00,,,0.00,,2013-01-20 18:03:00,
2013-01-20 11:13:00,3.0,-4.0,30.55,NNW,329,14.0,20.0,73,0.00,,,0.00,,2013-01-20 18:13:00,
2013-01-20 11:23:00,3.0,-3.0,30.55,NNE,20,9.0,16.0,74,0.00,,,0.00,,2013-01-20 18:23:00,
2013-01-20 11:33:00,2.0,-4.0,30.55,North,9,7.0,12.0,74,0.00,,,0.00,,2013-01-20 18:33:00,
2013-01-20 11:43:00,2.0,-4.0,30.55,North,9,7.0,12.0,74,0.00,,,0.00,,2013-01-20 18:43:00,
2013-01-20 11:53:00,2.0,-4.0,30.56,North,355,7.0,11.0,74,0.00,,,0.00,,2013-01-20 18:53:00,
2013-01-20 12:02:00,2.0,-4.0,30.56,North,355,7.0,11.0,74,0.00,,,0.00,,2013-01-20 19:02:00,
2013-01-20 12:12:00,2.0,-4.0,30.56,North,355,7.0,11.0,74,0.00,,,0.00,,2013-01-20 19:12:00,
2013-01-20 12:22:00,2.0,-4.0,30.56,North,355,7.0,11.0,74,0.00,,,0.00,,2013-01-20 19:22:00,
2013-01-20 12:33:00,2.0,-4.0,30.56,North,355,7.0,11.0,74,0.00,,,0.00,,2013-01-20 19:33:00,
2013-01-20 14:33:00,1.0,-7.0,30.52,NNW,348,12.0,20.0,69,0.00,,,0.00,,2013-01-20 21:33:00,
2013-01-20 14:43:00,1.0,-7.0,30.52,NNW,348,12.0,20.0,69,0.00,,,0.00,,2013-01-20 21:43:00,
2013-01-20 14:50:00,1.0,-7.0,30.53,NW,320,8.0,15.0,69,0.00,,,0.00,,2013-01-20 21:50:00,
2013-01-20 14:53:00,1.0,-7.0,30.53,NNW,331,9.0,16.0,69,0.00,,,0.00,,2013-01-20 21:53:00,
2013-01-20 15:03:00,1.0,-7.0,30.53,NW,320,8.0,15.0,69,0.00,,,0.00,,2013-01-20 22:03:00,
2013-01-20 15:12:00,1.0,-7.0,30.53,NW,320,8.0,15.0,69,0.00,,,0.00,,2013-01-20 22:12:00,
2013-01-20 15:22:00,1.0,-7.0,30.53,NW,320,8.0,15.0,69,0.00,,,0.00,,2013-01-20 22:22:00,
2013-01-20 15:33:00,1.0,-7.0,30.53,NW,320,8.0,15.0,69,0.00,,,0.00,,2013-01-20 22:33:00,
2013-01-20 15:43:00,1.0,-7.0,30.53,NW,320,8.0,15.0,69,0.00,,,0.00,,2013-01-20 22:43:00,
2013-01-20 18:03:00,0.0,-8.0,30.53,NW,304,8.0,12.0,67,0.00,,,0.00,,2013-01-21 01:03:00,
2013-01-20 18:13:00,0.0,-8.0,30.53,NW,304,8.0,12.0,67,0.00,,,0.00,,2013-01-21 01:13:00,
2013-01-20 18:23:00,0.0,-8.0,30.54,NW,319,11.0,14.0,67,0.00,,,0.00,,2013-01-21 01:23:00,
2013-01-20 18:33:00,0.0,-10.0,30.53,NW,315,10.0,15.0,63,0.00,,,0.00,,2013-01-21 01:33:00,
2013-01-20 18:43:00,0.0,-10.0,30.53,NW,315,10.0,15.0,63,0.00,,,0.00,,2013-01-21 01:43:00,
2013-01-20 18:52:00,0.0,-10.0,30.53,NW,313,9.0,14.0,63,0.00,,,0.00,,2013-01-21 01:52:00,
2013-01-20 19:03:00,-1.0,-11.0,30.53,NW,314,8.0,15.0,62,0.00,,,0.00,,2013-01-21 02:03:00,
2013-01-20 19:12:00,-1.0,-11.0,30.53,NW,314,8.0,15.0,62,0.00,,,0.00,,2013-01-21 02:12:00,
2013-01-20 19:23:00,-1.0,-11.0,30.53,NW,314,8.0,15.0,62,0.00,,,0.00,,2013-01-21 02:23:00,
2013-01-20 19:33:00,-1.0,-11.0,30.53,NW,314,8.0,15.0,62,0.00,,,0.00,,2013-01-21 02:33:00,
2013-01-20 21:53:00,-3.0,-10.0,30.52,WNW,296,7.0,9.0,70,0.00,,,0.00,,2013-01-21 04:53:00,
2013-01-20 22:03:00,-2.0,-9.0,30.52,NW,306,5.0,8.0,70,0.00,,,0.00,,2013-01-21 05:03:00,
2013-01-20 22:12:00,-2.0,-9.0,30.52,NW,306,5.0,8.0,70,0.00,,,0.00,,2013-01-21 05:12:00,
2013-01-20 22:22:00,-2.0,-10.0,30.52,NW,321,3.0,6.0,68,0.00,,,0.00,,2013-01-21 05:22:00,
2013-01-20 22:34:00,-2.0,-10.0,30.52,WNW,303,4.0,6.0,68,0.00,,,0.00,,2013-01-21 05:34:00,
2013-01-20 22:42:00,-2.0,-10.0,30.52,WNW,303,4.0,6.0,68,0.00,,,0.00,,2013-01-21 05:42:00,
2013-01-20 22:52:00,-2.0,-10.0,30.52,WNW,303,4.0,6.0,68,0.00,,,0.00,,2013-01-21 05:52:00,
2013-01-20 23:03:00,-2.0,-10.0,30.52,WNW,303,4.0,6.0,68,0.00,,,0.00,,2013-01-21 06:03:00,